Time;durP1;ratioP1;P1;durP2;ratioP2;P2;SDS_P1;SDS_P2;PMS_P1;PMS_P2;Temp;Humidity;BMP_temperature;BMP_pressure;BME280_temperature;BME280_humidity;BME280_pressure;Samples;Min_cycle;Max_cycle;Signal;HPM_P1;HPM_P2
2023/06/26 00:01:34;;;;;;;7.80;6.18;;;25.70;79.20;;;;;;10437586;28;20024;-67
2023/06/26 00:06:35;;;;;;;6.80;6.07;;;25.60;79.10;;;;;;10448699;28;20485;-67
2023/06/26 00:11:36;;;;;;;6.57;5.93;;;25.60;79.10;;;;;;10446237;28;20112;-68
2023/06/26 00:16:37;;;;;;;7.18;6.10;;;25.60;79.20;;;;;;10452742;28;20043;-67
2023/06/26 00:21:37;;;;;;;7.63;6.50;;;25.60;79.20;;;;;;10465453;28;20020;-67
2023/06/26 00:26:40;;;;;;;8.38;6.85;;;25.50;79.20;;;;;;10456458;28;20047;-67
2023/06/26 00:31:40;;;;;;;6.55;5.85;;;25.50;79.30;;;;;;10453977;28;20048;-67
2023/06/26 00:36:43;;;;;;;7.43;5.80;;;25.40;79.20;;;;;;10460255;28;20104;-67
2023/06/26 00:41:44;;;;;;;8.98;6.35;;;25.40;79.30;;;;;;10460775;28;20024;-67
2023/06/26 00:46:45;;;;;;;8.88;6.45;;;25.40;79.30;;;;;;10454633;28;20446;-67
2023/06/26 00:51:46;;;;;;;7.95;6.55;;;25.40;79.40;;;;;;10454596;28;20116;-67
2023/06/26 00:56:47;;;;;;;7.63;6.75;;;25.30;79.40;;;;;;10458852;28;20027;-67
2023/06/26 01:01:49;;;;;;;7.47;6.68;;;25.30;79.40;;;;;;10450230;28;20062;-67
2023/06/26 01:06:51;;;;;;;7.22;6.43;;;25.30;79.50;;;;;;10458955;28;20021;-67
2023/06/26 01:11:52;;;;;;;7.93;6.63;;;25.20;79.40;;;;;;10459439;28;20112;-67
2023/06/26 01:16:57;;;;;;;7.18;6.15;;;25.20;79.50;;;;;;10454619;28;20507;-67
2023/06/26 01:22:34;;;;;;;8.32;6.75;;;25.20;79.50;;;;;;10445617;28;20029;-67
2023/06/26 01:27:35;;;;;;;7.90;7.10;;;25.20;79.40;;;;;;10439923;28;20037;-67
2023/06/26 01:32:36;;;;;;;6.88;6.15;;;25.20;79.50;;;;;;10452744;28;20501;-67
2023/06/26 01:37:37;;;;;;;7.53;6.72;;;25.20;79.50;;;;;;10446082;28;20459;-67
2023/06/26 01:42:37;;;;;;;7.63;6.70;;;25.10;79.40;;;;;;10448311;28;20025;-67
2023/06/26 01:47:43;;;;;;;7.03;6.32;;;25.10;79.50;;;;;;10437961;28;20025;-67
2023/06/26 01:53:01;;;;;;;6.90;6.20;;;25.00;79.50;;;;;;10446227;28;20370;-67
2023/06/26 01:58:03;;;;;;;7.28;6.45;;;25.00;79.50;;;;;;10452227;28;20401;-67
2023/06/26 02:03:04;;;;;;;7.47;6.68;;;25.00;79.50;;;;;;10451145;28;20082;-67
2023/06/26 02:08:06;;;;;;;7.65;6.47;;;25.00;79.60;;;;;;10449660;28;20410;-67
2023/06/26 02:13:07;;;;;;;11.35;6.22;;;24.90;79.60;;;;;;10450631;28;20439;-67
2023/06/26 02:18:07;;;;;;;8.05;7.25;;;24.90;79.60;;;;;;10442611;28;20098;-67
2023/06/26 02:23:08;;;;;;;8.30;6.35;;;24.90;79.60;;;;;;10445224;28;20036;-67
2023/06/26 02:28:08;;;;;;;8.23;7.20;;;24.90;79.70;;;;;;10447429;28;20514;-67
2023/06/26 02:33:09;;;;;;;7.82;7.03;;;24.80;79.70;;;;;;10439368;28;20033;-67
2023/06/26 02:38:10;;;;;;;7.45;6.65;;;24.80;79.70;;;;;;10448753;28;20435;-67
2023/06/26 02:43:10;;;;;;;8.07;6.80;;;24.80;79.80;;;;;;10447997;28;20029;-67
2023/06/26 02:48:11;;;;;;;7.80;7.00;;;24.80;79.70;;;;;;10454867;28;20435;-66
2023/06/26 02:53:12;;;;;;;7.68;6.70;;;24.70;79.70;;;;;;10449351;28;20025;-67
2023/06/26 02:58:13;;;;;;;8.43;7.25;;;24.70;79.80;;;;;;10449170;28;20107;-66
2023/06/26 03:03:14;;;;;;;8.43;7.10;;;24.70;79.70;;;;;;10448369;28;20025;-67
2023/06/26 03:08:14;;;;;;;8.52;7.00;;;24.70;79.70;;;;;;10444986;28;20036;-66
2023/06/26 03:13:15;;;;;;;8.07;7.25;;;24.70;79.80;;;;;;10443643;28;20553;-67
2023/06/26 03:18:15;;;;;;;8.20;6.97;;;24.60;79.80;;;;;;10450276;28;20112;-67
2023/06/26 03:23:16;;;;;;;8.55;7.10;;;24.60;79.80;;;;;;10450162;28;20032;-66
2023/06/26 03:28:17;;;;;;;8.80;6.60;;;24.60;79.90;;;;;;10447045;28;20404;-67
2023/06/26 03:33:18;;;;;;;9.43;7.28;;;24.60;79.90;;;;;;10443206;28;20029;-67
2023/06/26 03:38:19;;;;;;;8.05;7.13;;;24.60;80.00;;;;;;10447057;28;20085;-66
2023/06/26 03:43:19;;;;;;;8.50;7.15;;;24.50;80.00;;;;;;10439791;28;20028;-66
2023/06/26 03:48:20;;;;;;;8.10;6.63;;;24.50;80.00;;;;;;10453469;28;20023;-66
2023/06/26 03:53:21;;;;;;;8.70;6.97;;;24.50;80.10;;;;;;10454410;28;20617;-66
2023/06/26 03:58:21;;;;;;;7.05;6.22;;;24.50;80.20;;;;;;10448425;28;20028;-66
2023/06/26 04:03:22;;;;;;;7.40;6.35;;;24.50;80.20;;;;;;10454143;28;20026;-66
2023/06/26 04:08:26;;;;;;;7.78;6.50;;;24.50;80.20;;;;;;10459684;28;20020;-66
2023/06/26 04:13:26;;;;;;;7.07;6.18;;;24.50;80.30;;;;;;10449341;28;20032;-66
2023/06/26 04:18:29;;;;;;;7.32;6.35;;;24.40;80.30;;;;;;10453642;28;20045;-66
2023/06/26 04:23:30;;;;;;;8.50;6.35;;;24.40;80.40;;;;;;10461507;28;20124;-66
2023/06/26 04:28:32;;;;;;;6.40;5.68;;;24.40;80.50;;;;;;10456917;28;20108;-67
2023/06/26 04:33:33;;;;;;;8.82;6.32;;;24.40;80.50;;;;;;10454809;28;20029;-66
2023/06/26 04:38:34;;;;;;;8.27;5.88;;;24.40;80.60;;;;;;10454586;28;20029;-67
2023/06/26 04:43:34;;;;;;;8.48;5.82;;;24.40;80.70;;;;;;10454811;28;20027;-67
2023/06/26 04:48:35;;;;;;;7.95;5.60;;;24.40;80.80;;;;;;10452340;28;20032;-67
2023/06/26 04:53:36;;;;;;;6.78;5.85;;;24.40;80.90;;;;;;10453124;28;20017;-67
2023/06/26 04:58:36;;;;;;;9.20;5.47;;;24.30;81.00;;;;;;10453178;28;20033;-66
2023/06/26 05:03:37;;;;;;;6.60;5.03;;;24.30;81.00;;;;;;10456982;28;20035;-67
2023/06/26 05:08:37;;;;;;;8.13;5.28;;;24.30;81.20;;;;;;10452173;28;20534;-67
2023/06/26 05:13:38;;;;;;;8.85;5.63;;;24.30;81.20;;;;;;10441865;28;20021;-67
2023/06/26 05:18:38;;;;;;;6.75;5.03;;;24.30;81.20;;;;;;10459412;28;20065;-67
2023/06/26 05:23:39;;;;;;;10.70;5.57;;;24.20;81.20;;;;;;10456838;28;20492;-67
2023/06/26 05:28:40;;;;;;;7.78;4.95;;;24.20;81.30;;;;;;10454853;28;20037;-66
2023/06/26 05:33:44;;;;;;;8.80;4.80;;;24.20;81.40;;;;;;10448185;28;20028;-66
2023/06/26 05:38:44;;;;;;;6.95;5.13;;;24.20;81.40;;;;;;10455019;28;20029;-66
2023/06/26 05:43:45;;;;;;;7.57;5.10;;;24.20;81.40;;;;;;10453197;28;20110;-66
2023/06/26 05:48:47;;;;;;;7.85;4.22;;;24.20;81.40;;;;;;10451825;28;20029;-71
2023/06/26 05:53:49;;;;;;;6.57;3.35;;;24.20;81.70;;;;;;10450449;28;20396;-73
2023/06/26 05:58:51;;;;;;;5.25;2.90;;;24.10;82.40;;;;;;10443878;28;20501;-71
2023/06/26 06:03:52;;;;;;;5.28;2.22;;;23.80;83.00;;;;;;10431310;28;20033;-71
2023/06/26 06:08:52;;;;;;;5.32;1.90;;;23.60;83.10;;;;;;10447562;28;20089;-72
2023/06/26 06:13:53;;;;;;;5.63;1.70;;;23.40;82.80;;;;;;10435205;28;20040;-72
2023/06/26 06:18:54;;;;;;;5.13;1.83;;;23.30;82.50;;;;;;10445070;28;20029;-72
2023/06/26 06:23:55;;;;;;;7.70;1.70;;;23.30;82.10;;;;;;10441454;28;20035;-72
2023/06/26 06:28:55;;;;;;;4.35;1.63;;;23.20;81.90;;;;;;10448683;28;20025;-72
2023/06/26 06:33:56;;;;;;;2.47;1.40;;;23.20;82.00;;;;;;10442747;28;20033;-72
2023/06/26 06:38:56;;;;;;;4.45;1.50;;;23.10;82.00;;;;;;10444685;28;20091;-71
2023/06/26 06:43:57;;;;;;;5.63;1.65;;;23.00;82.20;;;;;;10444925;28;20198;-71
2023/06/26 06:48:58;;;;;;;3.28;1.20;;;23.00;82.30;;;;;;10439617;28;20523;-73
2023/06/26 06:53:58;;;;;;;2.67;1.55;;;23.00;82.40;;;;;;10443033;28;20017;-72
2023/06/26 06:58:59;;;;;;;3.00;1.52;;;22.90;82.40;;;;;;10432190;28;20432;-72
2023/06/26 07:04:00;;;;;;;2.78;1.75;;;22.90;82.40;;;;;;10441129;28;20021;-72
2023/06/26 07:09:00;;;;;;;4.70;1.65;;;22.80;82.70;;;;;;10440775;28;20052;-70
2023/06/26 07:14:01;;;;;;;2.92;1.70;;;22.80;82.80;;;;;;10448328;28;20033;-72
2023/06/26 07:19:02;;;;;;;4.13;1.60;;;22.70;82.80;;;;;;10442855;28;20031;-71
2023/06/26 07:24:02;;;;;;;3.70;1.70;;;22.70;82.60;;;;;;10431044;28;20098;-72
2023/06/26 07:29:03;;;;;;;2.67;1.38;;;22.70;82.30;;;;;;10441691;28;20025;-73
2023/06/26 07:34:04;;;;;;;4.00;1.35;;;22.70;82.30;;;;;;10437653;28;20029;-71
2023/06/26 07:39:04;;;;;;;3.92;1.60;;;22.70;82.30;;;;;;10442363;28;20021;-73
2023/06/26 07:44:05;;;;;;;2.03;1.30;;;22.80;82.30;;;;;;10442222;28;20078;-72
2023/06/26 07:49:06;;;;;;;4.13;1.83;;;22.80;82.10;;;;;;10430994;28;20070;-74
2023/06/26 07:54:06;;;;;;;4.15;1.60;;;22.90;81.90;;;;;;10441262;28;20036;-72
2023/06/26 07:59:07;;;;;;;4.60;1.45;;;22.90;82.30;;;;;;10440542;28;20024;-71
2023/06/26 08:04:10;;;;;;;3.17;1.55;;;22.90;81.60;;;;;;10448104;28;20052;-71
2023/06/26 08:09:12;;;;;;;4.25;1.48;;;22.80;81.80;;;;;;10435813;28;20029;-69
2023/06/26 08:14:15;;;;;;;2.72;1.42;;;23.00;81.60;;;;;;10426085;28;20029;-71
2023/06/26 08:19:16;;;;;;;2.88;1.67;;;23.00;81.60;;;;;;10447883;28;20056;-70
2023/06/26 08:24:18;;;;;;;6.07;1.88;;;23.00;81.60;;;;;;10427043;28;20492;-68
2023/06/26 08:29:19;;;;;;;4.18;1.50;;;23.10;81.50;;;;;;10437275;28;20086;-69
2023/06/26 08:34:19;;;;;;;3.92;1.60;;;23.20;81.30;;;;;;10438728;28;20074;-71
2023/06/26 08:39:20;;;;;;;4.63;1.60;;;23.10;81.40;;;;;;10443019;28;20029;-70
2023/06/26 08:44:24;;;;;;;4.97;1.90;;;23.10;81.60;;;;;;10445495;28;20025;-71
2023/06/26 08:49:54;;;;;;;4.50;2.13;;;23.20;81.40;;;;;;10446215;28;20028;-70
2023/06/26 08:54:58;;;;;;;4.35;2.13;;;23.10;81.00;;;;;;10440393;28;20037;-67
2023/06/26 08:59:59;;;;;;;5.47;2.10;;;23.10;81.10;;;;;;10453025;28;20029;-70
2023/06/26 09:05:01;;;;;;;4.07;2.42;;;23.10;81.10;;;;;;10444924;28;20264;-71
2023/06/26 09:10:02;;;;;;;4.10;2.10;;;23.10;81.10;;;;;;10444098;28;20021;-69
2023/06/26 09:15:03;;;;;;;3.03;2.03;;;23.10;81.50;;;;;;10445185;28;20075;-71
2023/06/26 09:20:04;;;;;;;4.50;2.60;;;23.20;81.80;;;;;;10447512;28;20025;-70
2023/06/26 09:25:05;;;;;;;3.35;2.15;;;23.30;81.80;;;;;;10435661;28;20032;-70
2023/06/26 09:30:07;;;;;;;3.97;2.13;;;23.10;81.70;;;;;;10442382;28;20033;-69
2023/06/26 09:35:08;;;;;;;6.82;2.97;;;23.10;81.50;;;;;;10443604;28;20024;-70
2023/06/26 09:40:09;;;;;;;4.50;2.25;;;23.20;81.40;;;;;;10442899;28;20485;-70
2023/06/26 09:45:18;;;;;;;4.82;2.20;;;23.20;81.30;;;;;;10445220;28;20026;-70
2023/06/26 09:50:23;;;;;;;8.18;2.60;;;23.20;81.10;;;;;;10451088;28;20028;-69
2023/06/26 09:55:24;;;;;;;3.97;2.45;;;23.20;81.10;;;;;;10441970;28;20535;-70
2023/06/26 10:00:25;;;;;;;7.28;2.42;;;23.20;80.90;;;;;;10442723;28;20029;-73
2023/06/26 10:05:26;;;;;;;11.27;2.50;;;23.40;80.40;;;;;;10441430;28;20029;-69
2023/06/26 10:10:27;;;;;;;4.35;2.15;;;23.60;79.80;;;;;;10446519;28;20025;-68
2023/06/26 10:15:29;;;;;;;11.63;2.17;;;23.60;78.90;;;;;;10442837;28;20026;-67
2023/06/26 10:20:30;;;;;;;6.60;2.20;;;23.70;78.80;;;;;;10453527;28;20108;-69
2023/06/26 10:25:31;;;;;;;5.22;2.15;;;23.50;78.90;;;;;;10448262;28;20329;-74
2023/06/26 10:30:35;;;;;;;4.90;2.05;;;23.50;78.40;;;;;;10443966;28;20515;-69
2023/06/26 10:35:43;;;;;;;3.42;1.98;;;23.60;78.00;;;;;;10457029;28;20017;-68
2023/06/26 10:40:46;;;;;;;4.90;1.92;;;23.60;77.30;;;;;;10445705;28;20484;-69
2023/06/26 10:45:54;;;;;;;6.05;2.15;;;23.70;77.40;;;;;;10443078;28;20164;-68
2023/06/26 10:50:54;;;;;;;;;;;23.70;77.20;;;;;;10448503;28;20024;-69
2023/06/26 10:55:57;;;;;;;3.83;1.80;;;23.80;76.80;;;;;;10446681;28;19931;-69
2023/06/26 11:01:16;;;;;;;4.03;1.90;;;23.90;77.60;;;;;;10440644;28;20029;-70
2023/06/26 11:06:21;;;;;;;5.35;2.00;;;23.70;77.00;;;;;;10445014;28;20413;-70
2023/06/26 11:11:42;;;;;;;4.30;1.95;;;23.70;77.10;;;;;;10441621;28;20024;-69
2023/06/26 11:16:43;;;;;;;2.75;1.33;;;23.90;76.70;;;;;;10445318;28;20531;-68
2023/06/26 11:21:44;;;;;;;4.82;2.33;;;24.00;76.20;;;;;;10436343;28;20033;-68
2023/06/26 11:26:46;;;;;;;8.00;1.60;;;24.10;75.90;;;;;;10454110;28;20347;-70
2023/06/26 11:31:46;;;;;;;3.63;1.65;;;24.00;75.70;;;;;;10434282;28;20014;-69
2023/06/26 11:36:48;;;;;;;4.45;1.42;;;23.90;75.70;;;;;;10440826;28;20033;-70
2023/06/26 11:41:49;;;;;;;3.25;1.25;;;24.00;75.50;;;;;;10434822;28;20029;-72
2023/06/26 11:46:54;;;;;;;2.72;1.20;;;24.30;74.70;;;;;;10441643;28;20033;-69
2023/06/26 11:51:55;;;;;;;2.92;1.23;;;24.50;74.00;;;;;;10432721;28;20013;-69
2023/06/26 11:56:58;;;;;;;5.75;1.20;;;24.70;73.50;;;;;;10434897;28;20488;-71
2023/06/26 12:01:58;;;;;;;2.90;1.10;;;24.60;73.40;;;;;;10432826;28;20526;-69
2023/06/26 12:06:59;;;;;;;5.63;2.03;;;24.60;73.10;;;;;;10444827;28;20091;-69
2023/06/26 12:12:01;;;;;;;3.25;1.30;;;24.40;73.30;;;;;;10450150;28;20638;-68
2023/06/26 12:17:10;;;;;;;4.78;1.30;;;24.40;73.60;;;;;;10444508;28;20096;-70
2023/06/26 12:22:11;;;;;;;4.72;1.00;;;24.40;72.90;;;;;;10438673;28;20021;-68
2023/06/26 12:27:17;;;;;;;2.35;1.00;;;24.20;73.10;;;;;;10440811;28;20500;-73
2023/06/26 12:32:18;;;;;;;5.53;1.00;;;24.10;73.30;;;;;;10446973;28;20029;-68
2023/06/26 12:37:19;;;;;;;4.40;1.40;;;24.00;73.30;;;;;;10454296;28;20025;-67
2023/06/26 12:42:21;;;;;;;4.30;1.10;;;24.00;73.10;;;;;;10443698;28;20052;-67
2023/06/26 12:47:30;;;;;;;4.82;1.60;;;24.10;72.80;;;;;;10436188;28;20021;-67
2023/06/26 12:52:31;;;;;;;5.43;1.13;;;24.40;70.60;;;;;;10435991;28;20029;-68
2023/06/26 12:57:31;;;;;;;4.07;0.90;;;24.50;71.80;;;;;;10436855;28;20028;-68
2023/06/26 13:02:32;;;;;;;2.85;0.95;;;24.60;71.30;;;;;;10446288;28;20428;-68
2023/06/26 13:07:33;;;;;;;3.17;1.00;;;24.60;71.00;;;;;;10443621;28;20032;-67
2023/06/26 13:12:34;;;;;;;2.85;1.02;;;24.80;70.60;;;;;;10443634;28;20017;-67
2023/06/26 13:17:34;;;;;;;1.63;0.82;;;25.00;70.00;;;;;;10448117;28;20037;-68
2023/06/26 13:22:35;;;;;;;1.77;0.90;;;24.90;69.80;;;;;;10454996;28;20029;-68
2023/06/26 13:27:36;;;;;;;5.20;1.20;;;24.70;70.60;;;;;;10434670;28;20036;-68
2023/06/26 13:32:36;;;;;;;4.55;1.27;;;24.50;71.10;;;;;;10446668;28;20041;-68
2023/06/26 13:37:37;;;;;;;7.80;1.25;;;24.50;71.90;;;;;;10443334;28;20044;-68
2023/06/26 13:42:38;;;;;;;5.72;1.20;;;24.50;71.50;;;;;;10446482;28;20505;-67
2023/06/26 13:47:41;;;;;;;3.13;1.10;;;24.40;71.40;;;;;;10440391;28;20060;-66
2023/06/26 13:52:41;;;;;;;3.70;1.13;;;24.40;71.50;;;;;;10443286;28;20053;-67
2023/06/26 13:57:42;;;;;;;4.60;1.20;;;24.30;71.60;;;;;;10444959;28;20100;-67
2023/06/26 14:02:42;;;;;;;3.88;0.90;;;24.10;71.50;;;;;;10442949;28;20036;-68
2023/06/26 14:07:43;;;;;;;5.25;1.27;;;24.10;71.00;;;;;;10441258;28;20020;-66
2023/06/26 14:12:44;;;;;;;3.65;1.10;;;24.10;71.80;;;;;;10435819;28;20033;-67
2023/06/26 14:17:44;;;;;;;2.40;0.90;;;24.20;71.40;;;;;;10454961;28;20028;-69
2023/06/26 14:22:45;;;;;;;5.30;1.35;;;24.20;70.90;;;;;;10448765;28;20032;-67
2023/06/26 14:27:46;;;;;;;6.38;0.98;;;24.30;70.90;;;;;;10436463;28;20092;-67
2023/06/26 14:32:46;;;;;;;2.97;0.88;;;24.50;70.40;;;;;;10447188;28;20522;-72
2023/06/26 14:37:48;;;;;;;3.42;1.00;;;24.70;69.30;;;;;;10456740;28;20060;-65
2023/06/26 14:42:48;;;;;;;3.92;0.90;;;24.60;69.10;;;;;;10445471;28;20116;-66
2023/06/26 14:47:49;;;;;;;7.43;1.27;;;24.60;68.50;;;;;;10442050;28;20111;-67
2023/06/26 14:52:49;;;;;;;8.52;1.20;;;24.90;68.30;;;;;;10447335;28;20049;-66
2023/06/26 14:57:50;;;;;;;5.57;1.23;;;25.00;67.80;;;;;;10451027;28;20033;-66
2023/06/26 15:02:53;;;;;;;2.92;0.95;;;25.00;67.80;;;;;;10446368;28;20032;-67
2023/06/26 15:07:53;;;;;;;5.00;1.10;;;25.00;67.80;;;;;;10451688;28;20028;-66
2023/06/26 15:12:54;;;;;;;4.93;1.10;;;25.00;67.80;;;;;;10444352;28;20025;-66
2023/06/26 15:17:54;;;;;;;2.13;0.93;;;24.80;68.30;;;;;;10448922;28;20110;-66
2023/06/26 15:22:56;;;;;;;4.65;1.23;;;24.50;68.70;;;;;;10444715;28;20160;-66
2023/06/26 15:27:56;;;;;;;2.25;0.77;;;24.70;68.80;;;;;;10449589;28;20058;-66
2023/06/26 15:32:57;;;;;;;1.65;0.95;;;24.70;68.70;;;;;;10439534;28;20025;-65
2023/06/26 15:37:58;;;;;;;4.93;1.17;;;24.70;68.40;;;;;;10444023;28;20034;-65
2023/06/26 15:42:58;;;;;;;2.92;1.10;;;24.70;68.50;;;;;;10445255;28;20021;-66
2023/06/26 15:47:59;;;;;;;6.63;1.30;;;24.70;68.30;;;;;;10456866;28;20017;-66
2023/06/26 15:53:02;;;;;;;2.03;1.05;;;24.80;68.50;;;;;;10453800;28;20029;-66
2023/06/26 15:58:03;;;;;;;2.35;1.08;;;24.70;67.60;;;;;;10454783;28;20029;-65
2023/06/26 16:03:03;;;;;;;3.58;1.25;;;24.30;67.90;;;;;;10448888;28;20024;-66
2023/06/26 16:08:04;;;;;;;3.05;0.73;;;24.10;68.50;;;;;;10442338;28;20066;-65
2023/06/26 16:13:05;;;;;;;1.90;0.80;;;24.10;68.30;;;;;;10447147;28;20347;-67
2023/06/26 16:18:05;;;;;;;3.30;1.27;;;24.00;67.80;;;;;;10447165;28;20025;-66
2023/06/26 16:23:06;;;;;;;2.08;0.82;;;24.00;67.60;;;;;;10449670;28;20240;-65
2023/06/26 16:28:07;;;;;;;2.83;1.08;;;23.80;67.50;;;;;;10462641;28;20024;-66
2023/06/26 16:33:08;;;;;;;2.63;1.00;;;23.60;67.50;;;;;;10450198;28;20029;-66
2023/06/26 16:38:11;;;;;;;3.63;1.10;;;23.50;67.50;;;;;;10446405;28;20321;-65
2023/06/26 16:43:12;;;;;;;4.47;1.63;;;23.40;67.30;;;;;;10449447;28;20025;-65
2023/06/26 16:48:13;;;;;;;1.48;1.00;;;23.30;67.30;;;;;;10459704;28;20031;-65
2023/06/26 16:53:14;;;;;;;1.92;1.00;;;23.20;66.70;;;;;;10463187;28;20103;-66
2023/06/26 16:58:15;;;;;;;1.85;0.90;;;23.10;66.10;;;;;;10452495;28;20024;-66
2023/06/26 17:03:17;;;;;;;4.70;0.93;;;23.10;65.40;;;;;;10446711;28;20036;-66
2023/06/26 17:08:17;;;;;;;3.33;1.13;;;23.00;65.30;;;;;;10442030;28;20017;-67
2023/06/26 17:13:18;;;;;;;3.20;1.15;;;22.90;65.70;;;;;;10437248;28;20451;-66
2023/06/26 17:18:18;;;;;;;4.95;0.95;;;22.80;65.80;;;;;;10440691;28;20082;-66
2023/06/26 17:23:19;;;;;;;2.88;0.93;;;22.70;66.00;;;;;;10443978;28;20112;-65
2023/06/26 17:28:19;;;;;;;4.60;1.20;;;22.70;66.20;;;;;;10447693;28;20063;-67
2023/06/26 17:33:20;;;;;;;2.13;0.90;;;22.70;66.20;;;;;;10447672;28;20453;-66
2023/06/26 17:38:21;;;;;;;3.00;0.98;;;22.50;66.20;;;;;;10442516;28;20029;-67
2023/06/26 17:43:21;;;;;;;6.35;1.10;;;22.30;66.10;;;;;;10442957;28;20024;-67
2023/06/26 17:48:22;;;;;;;3.85;1.20;;;22.30;66.40;;;;;;10440279;28;20009;-68
2023/06/26 17:53:23;;;;;;;2.58;1.00;;;22.20;66.20;;;;;;10438040;28;20025;-71
2023/06/26 17:58:24;;;;;;;2.13;0.77;;;22.20;66.50;;;;;;10434553;28;20095;-71
2023/06/26 18:03:24;;;;;;;2.97;1.20;;;22.10;66.70;;;;;;10440408;28;20025;-69
2023/06/26 18:08:25;;;;;;;3.53;1.40;;;22.10;67.00;;;;;;10440942;28;20032;-72
2023/06/26 18:13:28;;;;;;;3.60;1.52;;;22.00;67.20;;;;;;10427900;28;21862;-68
2023/06/26 18:18:28;;;;;;;4.60;1.00;;;22.00;68.20;;;;;;10449287;28;20029;-67
2023/06/26 18:23:29;;;;;;;4.15;1.10;;;22.00;68.50;;;;;;10435102;28;20031;-68
2023/06/26 18:28:31;;;;;;;3.80;1.10;;;22.00;68.40;;;;;;10434586;28;20112;-68
2023/06/26 18:33:32;;;;;;;4.55;1.10;;;21.90;68.20;;;;;;10433687;28;20043;-68
2023/06/26 18:38:32;;;;;;;3.15;1.10;;;21.80;68.40;;;;;;10436258;28;20392;-68
2023/06/26 18:43:33;;;;;;;4.65;1.08;;;21.70;68.40;;;;;;10430789;28;20119;-68
2023/06/26 18:48:34;;;;;;;3.22;0.85;;;21.80;68.40;;;;;;10442420;28;20113;-67
2023/06/26 18:53:35;;;;;;;1.60;0.90;;;21.70;68.90;;;;;;10435599;28;20021;-67
2023/06/26 18:58:36;;;;;;;3.70;1.42;;;21.60;68.80;;;;;;10436002;28;20047;-67
2023/06/26 19:03:36;;;;;;;3.92;1.30;;;21.50;68.80;;;;;;10444128;28;20032;-68
2023/06/26 19:08:37;;;;;;;3.88;1.10;;;21.10;70.70;;;;;;10433521;28;20024;-68
2023/06/26 19:13:38;;;;;;;3.33;1.10;;;20.90;71.00;;;;;;10430570;28;20515;-69
2023/06/26 19:18:38;;;;;;;3.88;1.30;;;21.00;70.90;;;;;;10436413;28;20032;-73
2023/06/26 19:23:39;;;;;;;3.90;1.30;;;21.00;70.80;;;;;;10434678;28;20087;-69
2023/06/26 19:28:40;;;;;;;2.78;1.00;;;21.10;71.00;;;;;;10440439;28;20013;-69
2023/06/26 19:33:40;;;;;;;2.78;0.98;;;21.00;71.50;;;;;;10443454;28;20093;-70
2023/06/26 19:38:41;;;;;;;2.65;1.10;;;21.00;71.50;;;;;;10434445;28;20029;-68
2023/06/26 19:43:41;;;;;;;2.78;1.02;;;21.00;72.20;;;;;;10438487;28;20028;-69
2023/06/26 19:48:42;;;;;;;2.42;1.00;;;20.90;71.60;;;;;;10437717;28;20064;-69
2023/06/26 19:53:43;;;;;;;3.03;1.10;;;20.90;71.60;;;;;;10442469;28;20103;-69
2023/06/26 19:58:44;;;;;;;2.72;1.00;;;20.80;71.70;;;;;;10431946;28;20025;-69
2023/06/26 20:03:44;;;;;;;3.10;1.10;;;20.70;71.80;;;;;;10431952;28;20021;-69
2023/06/26 20:08:45;;;;;;;5.07;1.17;;;20.70;72.10;;;;;;10441813;28;20070;-69
2023/06/26 20:13:45;;;;;;;2.03;1.10;;;20.60;72.60;;;;;;10434446;28;20118;-68
2023/06/26 20:18:46;;;;;;;7.45;1.20;;;20.60;73.10;;;;;;10428586;28;20036;-66
2023/06/26 20:23:47;;;;;;;5.00;1.10;;;20.60;73.40;;;;;;10434088;28;20038;-66
2023/06/26 20:28:48;;;;;;;2.88;1.20;;;20.70;73.20;;;;;;10428159;28;20020;-65
2023/06/26 20:33:50;;;;;;;2.10;1.08;;;20.90;73.00;;;;;;10432723;28;20067;-66
2023/06/26 20:38:51;;;;;;;6.00;1.60;;;21.10;72.80;;;;;;10443736;28;20120;-65
2023/06/26 20:43:51;;;;;;;5.70;2.00;;;21.20;72.70;;;;;;10443295;28;20102;-66
2023/06/26 20:48:52;;;;;;;3.25;1.13;;;21.30;72.50;;;;;;10438109;28;20024;-66
2023/06/26 20:53:54;;;;;;;1.88;1.20;;;21.40;72.60;;;;;;10452998;28;20032;-66
2023/06/26 20:58:55;;;;;;;3.38;1.38;;;21.50;72.60;;;;;;10454342;28;20028;-66
2023/06/26 21:03:55;;;;;;;4.13;1.15;;;21.50;72.50;;;;;;10434905;28;20025;-67
2023/06/26 21:08:56;;;;;;;2.95;1.20;;;21.50;72.40;;;;;;10439445;28;20574;-67
2023/06/26 21:13:56;;;;;;;3.42;1.15;;;21.60;72.50;;;;;;10431407;28;20136;-66
2023/06/26 21:18:57;;;;;;;3.72;1.50;;;21.60;72.40;;;;;;10438651;28;20090;-66
2023/06/26 21:23:58;;;;;;;2.10;1.25;;;21.60;73.10;;;;;;10446638;28;20576;-67
2023/06/26 21:28:58;;;;;;;1.95;1.08;;;21.50;72.50;;;;;;10449464;28;20032;-66
2023/06/26 21:33:59;;;;;;;5.45;1.60;;;21.70;72.50;;;;;;10450557;28;20089;-66
2023/06/26 21:39:00;;;;;;;2.90;1.35;;;21.70;72.50;;;;;;10435754;28;20029;-65
2023/06/26 21:44:01;;;;;;;3.13;1.33;;;21.70;72.50;;;;;;10450436;28;20200;-66
2023/06/26 21:49:02;;;;;;;1.55;1.08;;;21.70;72.50;;;;;;10430933;28;20103;-66
2023/06/26 21:54:02;;;;;;;4.13;1.50;;;21.70;72.60;;;;;;10437308;28;20022;-67
2023/06/26 21:59:03;;;;;;;2.47;1.13;;;21.70;72.60;;;;;;10424620;28;20447;-67
2023/06/26 22:04:04;;;;;;;2.63;1.50;;;21.60;72.50;;;;;;10444960;28;20122;-67
2023/06/26 22:09:05;;;;;;;3.15;1.02;;;21.60;72.60;;;;;;10436144;28;20469;-67
2023/06/26 22:14:06;;;;;;;3.08;1.10;;;21.70;72.60;;;;;;10445631;28;20089;-67
2023/06/26 22:19:08;;;;;;;1.98;1.23;;;21.70;72.50;;;;;;10445767;28;20085;-66
2023/06/26 22:24:09;;;;;;;2.50;1.05;;;21.60;72.40;;;;;;10445153;28;20055;-67
2023/06/26 22:29:09;;;;;;;4.25;1.73;;;21.60;73.00;;;;;;10434688;28;20024;-67
2023/06/26 22:34:10;;;;;;;2.42;1.33;;;21.60;72.40;;;;;;10444906;28;20025;-67
2023/06/26 22:39:11;;;;;;;2.38;0.95;;;21.60;72.50;;;;;;10438986;28;20029;-66
2023/06/26 22:44:11;;;;;;;3.03;1.55;;;21.60;72.50;;;;;;10436192;28;20033;-66
2023/06/26 22:49:12;;;;;;;3.13;1.50;;;21.50;72.50;;;;;;10438164;28;20021;-65
2023/06/26 22:54:13;;;;;;;1.50;1.20;;;21.50;72.50;;;;;;10446071;28;20024;-67
2023/06/26 22:59:13;;;;;;;2.45;1.20;;;21.50;72.50;;;;;;10444421;28;20025;-66
2023/06/26 23:04:14;;;;;;;2.38;1.48;;;21.40;72.50;;;;;;10441325;28;20055;-66
2023/06/26 23:09:14;;;;;;;3.35;1.25;;;21.40;72.50;;;;;;10444845;28;20024;-66
2023/06/26 23:14:15;;;;;;;1.40;1.17;;;21.50;72.60;;;;;;10433963;28;20021;-66
2023/06/26 23:19:16;;;;;;;2.53;1.33;;;21.40;72.50;;;;;;10447721;28;20035;-66
2023/06/26 23:24:16;;;;;;;1.92;1.23;;;21.40;72.60;;;;;;10437856;28;20497;-66
2023/06/26 23:29:17;;;;;;;2.58;1.20;;;21.30;72.50;;;;;;10445151;28;20017;-66
2023/06/26 23:34:19;;;;;;;1.55;1.20;;;21.20;72.50;;;;;;10443027;28;20110;-66
2023/06/26 23:39:20;;;;;;;3.13;1.25;;;21.30;72.60;;;;;;10443712;28;20028;-66
2023/06/26 23:44:21;;;;;;;3.53;1.55;;;21.30;72.60;;;;;;10429915;28;20021;-66
2023/06/26 23:49:22;;;;;;;2.85;1.35;;;21.20;72.60;;;;;;10444067;28;20206;-66
2023/06/26 23:54:22;;;;;;;1.30;1.02;;;21.20;72.60;;;;;;10448546;28;20083;-67
2023/06/26 23:59:23;;;;;;;2.53;1.48;;;21.20;72.70;;;;;;10439183;28;20057;-67
